Portada
METAR-TAF:

METAR-TAF

Aeropuertos :

Aeropuerto Internacional de Maiquetía Simón Bolívar

Caracas, Venezuela

latitud: 10-36N, longitud: 066-59W, altitud: 43 m

Observación

El informe se hizo hace 56 minutos, a las 05:00 UTC
Viento calma
Temperatura 23°C
Humedad 83%
Presión 1015 hPa
Visibilidad 10 km o más
Escasas nubes a una altura de 1600 ft

METAR: SVMI 160500Z 00000KT 9999 FEW016 23/20 Q1015

Hora: 01:56 (05:56 UTC)

Pronóstico

El informe se hizo hace 1 hora y 56 minutos, a las 04:00 UTC
Pronóstico válido del 16 a las 06 UTC al 17 a las 06 UTC
Viento 9 kt del este
Visibilidad 10 km o más
Escasas nubes a una altura de 1600 ft
Evolucionando progresivamente
del 16 a las 07 UTC al 16 a las 11 UTC
Viento 10 kt del este

TAF: SVMI 160400Z 1606/1706 09009KT 9999 FEW016 TX31/19Z TN22/09Z BECMG 1607/1611 09010KT

Observaciones y pronósticos meteorológicos de más de 4000 aeropuertos (mensajes METAR y TAF).

Los puntos amarillos y rojos representan las estaciones disponibles.

Ponga el ratón en el punto deseado para ver el nombre de la estación.

Haga clic para ver las observaciones y los pronósticos meteorológicos.

Para cambiar el mapa : haga clic en los botones verdes con una cruz de color negro para hacer un zoom, en el botón verde con un guión para alejar o en las flechas verdes para mapas adyacentes.


METAR-TAF: